Time;durP1;ratioP1;P1;durP2;ratioP2;P2;SDS_P1;SDS_P2;PMS_P1;PMS_P2;Temp;Humidity;BMP_temperature;BMP_pressure;BME280_temperature;BME280_humidity;BME280_pressure;Samples;Min_cycle;Max_cycle;Signal;HPM_P1;HPM_P2
2022/01/02 00:01:01;;;;;;;10.33;7.03;;;;;;;9.39;78.01;97552.66;4984944;28;20224;-91
2022/01/02 00:03:51;;;;;;;8.07;5.53;;;;;;;9.75;77.68;97590.19;4997478;28;20220;-92
2022/01/02 00:06:45;;;;;;;8.03;5.33;;;;;;;9.90;77.13;97578.50;4980759;28;20208;-91
2022/01/02 00:09:33;;;;;;;5.83;4.83;;;;;;;10.21;76.80;97624.00;4981650;28;20251;-93
2022/01/02 00:12:25;;;;;;;7.03;4.93;;;;;;;10.13;76.28;97579.44;4992180;28;20200;-92
2022/01/02 00:15:15;;;;;;;7.97;4.80;;;;;;;10.20;76.12;97587.81;4982642;28;20235;-90
2022/01/02 00:18:12;;;;;;;5.83;4.37;;;;;;;10.08;75.82;97557.16;4974753;28;20210;-94
2022/01/02 00:21:00;;;;;;;5.73;4.43;;;;;;;10.45;75.89;97619.69;4977050;28;20219;-93
2022/01/02 00:24:00;;;;;;;6.67;4.40;;;;;;;10.32;75.20;97587.38;4992293;28;20236;-94
2022/01/02 00:26:48;;;;;;;6.43;4.20;;;;;;;10.67;74.97;97649.09;4975410;28;20216;-94
2022/01/02 00:29:38;;;;;;;5.07;4.13;;;;;;;10.53;75.21;97626.28;4965100;28;20235;-95
2022/01/02 00:32:26;;;;;;;6.50;5.30;;;;;;;10.61;75.01;97631.19;4963290;28;20209;-93
2022/01/02 00:35:11;;;;;;;5.23;4.40;;;;;;;10.73;75.12;97660.97;4980690;28;20319;-92
2022/01/02 00:37:57;;;;;;;5.67;4.80;;;;;;;10.29;75.04;97585.75;4961772;28;20204;-92
2022/01/02 00:40:45;;;;;;;6.07;4.30;;;;;;;10.83;74.35;97672.69;4948674;28;20353;-93
2022/01/02 00:43:47;;;;;;;6.57;4.23;;;;;;;10.81;74.59;97669.31;4964362;28;20255;-94
2022/01/02 00:46:35;;;;;;;7.10;4.33;;;;;;;10.49;74.31;97624.69;4970152;28;20207;-92
2022/01/02 00:49:26;;;;;;;6.73;4.10;;;;;;;10.61;74.65;97646.72;4962891;28;20211;-92
2022/01/02 00:52:20;;;;;;;4.87;3.90;;;;;;;10.44;74.49;97628.34;4978155;28;20229;-94
2022/01/02 00:55:09;;;;;;;5.50;4.03;;;;;;;10.62;74.12;97651.84;4965730;28;20236;-94
2022/01/02 00:57:58;;;;;;;5.87;4.10;;;;;;;10.83;74.35;97699.44;4980672;28;20207;-92
2022/01/02 01:00:49;;;;;;;5.87;4.20;;;;;;;10.57;74.67;97650.34;4981798;28;20221;-93
2022/01/02 01:03:39;;;;;;;6.47;4.37;;;;;;;10.73;74.25;97681.69;4953600;28;20215;-91
2022/01/02 01:06:32;;;;;;;9.87;5.23;;;;;;;10.46;74.59;97647.28;4948182;28;20703;-91
2022/01/02 01:09:20;;;;;;;6.27;4.53;;;;;;;10.59;74.73;97674.44;4958731;28;20203;-92
2022/01/02 01:12:07;;;;;;;6.47;4.37;;;;;;;10.40;74.71;97639.72;4959343;28;20207;-92
2022/01/02 01:14:53;;;;;;;6.10;4.57;;;;;;;10.69;74.81;97696.50;4960872;28;20238;-92
2022/01/02 01:17:40;;;;;;;5.37;4.07;;;;;;;10.51;75.32;97674.69;4974204;28;20326;-94
2022/01/02 01:20:40;;;;;;;5.43;4.33;;;;;;;10.71;75.19;97701.63;4991045;28;20215;-91
2022/01/02 01:23:26;;;;;;;6.30;3.80;;;;;;;10.49;75.06;97670.44;4981476;28;20199;-94
2022/01/02 01:26:17;;;;;;;5.03;3.80;;;;;;;10.34;74.34;97647.72;4973779;28;20259;-92
2022/01/02 01:29:03;;;;;;;4.93;3.57;;;;;;;10.38;74.83;97657.91;4960982;28;20215;-93
2022/01/02 01:31:50;;;;;;;5.33;3.70;;;;;;;10.62;74.78;97697.63;4947712;28;20217;-95
2022/01/02 01:34:36;;;;;;;5.43;3.90;;;;;;;10.36;75.20;97662.31;4948025;28;20367;-92
2022/01/02 01:37:22;;;;;;;4.90;4.10;;;;;;;10.57;75.10;97700.38;4961586;28;20204;-93
2022/01/02 01:40:10;;;;;;;4.30;3.83;;;;;;;10.56;75.16;97703.00;4960182;28;20198;-91
2022/01/02 01:43:02;;;;;;;6.37;4.33;;;;;;;10.31;75.20;97664.19;4959730;28;20714;-93
2022/01/02 01:45:53;;;;;;;6.23;4.70;;;;;;;10.27;75.81;97677.28;4960623;28;20200;-92
2022/01/02 01:48:39;;;;;;;5.07;4.40;;;;;;;10.03;75.90;97641.88;4945578;28;20252;-92
2022/01/02 01:51:25;;;;;;;5.63;3.97;;;;;;;10.21;76.08;97674.91;4962200;28;20207;-90
2022/01/02 01:54:12;;;;;;;5.63;4.47;;;;;;;10.10;76.21;97667.50;4964654;28;20256;-93
2022/01/02 01:56:57;;;;;;;6.40;4.30;;;;;;;10.06;76.20;97659.84;4951735;28;20202;-92
2022/01/02 01:59:48;;;;;;;8.03;5.00;;;;;;;10.28;76.65;97721.22;4966424;28;20205;-92
2022/01/02 02:02:38;;;;;;;7.67;4.37;;;;;;;10.13;77.17;97705.38;4951756;28;20205;-93
2022/01/02 02:05:24;;;;;;;8.37;6.63;;;;;;;10.05;77.33;97715.97;4978320;28;20216;-92
2022/01/02 02:08:12;;;;;;;9.13;6.93;;;;;;;9.97;77.12;97692.09;4939179;28;20264;-92
2022/01/02 02:11:01;;;;;;;9.27;7.10;;;;;;;10.16;76.66;97713.88;4965600;28;20212;-92
2022/01/02 02:13:49;;;;;;;8.90;5.90;;;;;;;10.17;76.46;97696.63;4960517;28;20754;-91
2022/01/02 02:16:36;;;;;;;8.47;6.83;;;;;;;9.99;77.11;97692.88;4973020;28;20630;-92
2022/01/02 02:19:21;;;;;;;7.80;5.93;;;;;;;9.99;76.82;97685.13;4957755;28;20195;-92
2022/01/02 02:22:07;;;;;;;12.17;8.33;;;;;;;10.10;76.18;97700.28;4959420;28;20290;-91
2022/01/02 02:24:54;;;;;;;8.80;5.43;;;;;;;9.99;76.62;97676.50;4953938;28;20224;-92
2022/01/02 02:27:50;;;;;;;7.17;5.43;;;;;;;10.31;75.74;97721.13;4963738;28;20216;-91
2022/01/02 02:30:40;;;;;;;5.77;4.50;;;;;;;10.07;76.19;97680.53;4960878;28;20215;-92
2022/01/02 02:33:26;;;;;;;5.87;4.77;;;;;;;10.03;75.96;97670.31;4979867;28;20200;-94
2022/01/02 02:36:13;;;;;;;5.97;4.60;;;;;;;10.08;76.27;97684.78;4980734;28;20235;-91
2022/01/02 02:38:59;;;;;;;6.13;5.03;;;;;;;9.85;76.28;97676.94;4982295;28;20248;-90
2022/01/02 02:41:47;;;;;;;5.70;5.03;;;;;;;9.60;76.82;97643.28;4968582;28;20235;-91
2022/01/02 02:44:37;;;;;;;5.93;5.10;;;;;;;9.83;77.01;97689.94;4980562;28;20189;-91
2022/01/02 02:50:28;;;;;;;13.60;8.53;;;;;;;9.95;76.91;97716.31;4958594;28;20305;-90
2022/01/02 02:53:16;;;;;;;10.77;6.40;;;;;;;9.82;77.20;97688.25;4957372;28;20298;-92
2022/01/02 02:56:12;;;;;;;8.83;5.60;;;;;;;9.91;77.13;97709.53;4958545;28;20326;-90
2022/01/02 02:58:58;;;;;;;6.77;5.33;;;;;;;9.68;78.35;97720.63;4957417;28;20220;-91
2022/01/02 03:01:47;;;;;;;5.67;5.07;;;;;;;9.39;78.71;97690.50;4956941;28;20223;-90
2022/01/02 03:04:33;;;;;;;7.93;5.37;;;;;;;9.45;79.24;97713.56;4973280;28;20203;-90
2022/01/02 03:07:19;;;;;;;6.43;5.07;;;;;;;9.20;79.23;97684.19;4967337;28;20210;-94
2022/01/02 03:10:10;;;;;;;8.87;5.80;;;;;;;9.53;78.92;97728.84;4953740;28;20226;-93
2022/01/02 03:12:55;;;;;;;5.60;4.63;;;;;;;9.68;77.90;97737.00;4980838;28;20299;-94
2022/01/02 03:15:41;;;;;;;7.27;5.60;;;;;;;9.50;77.29;97714.25;4967754;28;20230;-94
2022/01/02 03:18:28;;;;;;;7.70;5.67;;;;;;;9.41;78.40;97717.16;4962270;28;20200;-92
2022/01/02 03:21:16;;;;;;;7.93;5.67;;;;;;;9.70;77.89;97742.97;4947385;28;20216;-94
2022/01/02 03:24:03;;;;;;;8.40;5.60;;;;;;;9.49;77.59;97712.59;4958075;28;20196;-93
2022/01/02 03:26:49;;;;;;;14.80;8.03;;;;;;;9.48;77.50;97697.94;4958942;28;20228;-93
2022/01/02 03:29:35;;;;;;;10.53;7.60;;;;;;;9.71;76.88;97730.84;4945169;28;20692;-92
2022/01/02 03:32:21;;;;;;;7.63;6.13;;;;;;;9.80;77.15;97728.84;4971939;28;20618;-92
2022/01/02 03:35:07;;;;;;;8.00;4.90;;;;;;;9.90;76.79;97744.91;4958467;28;20227;-92
2022/01/02 03:37:54;;;;;;;8.13;5.67;;;;;;;9.46;77.39;97684.22;4958414;28;20207;-91
2022/01/02 03:40:39;;;;;;;6.73;5.70;;;;;;;9.48;78.03;97713.47;4957304;28;20291;-93
2022/01/02 03:43:25;;;;;;;6.73;5.50;;;;;;;9.44;77.88;97723.94;4944731;28;20278;-91
2022/01/02 03:46:12;;;;;;;8.70;5.93;;;;;;;9.50;77.57;97739.28;4944650;28;20718;-92
2022/01/02 03:48:59;;;;;;;9.20;6.63;;;;;;;9.14;78.82;97711.94;4971588;28;20200;-90
2022/01/02 03:51:45;;;;;;;9.50;6.43;;;;;;;9.12;78.90;97721.47;4943785;28;20219;-91
2022/01/02 03:54:32;;;;;;;8.83;6.73;;;;;;;9.05;79.24;97707.06;4959803;28;20235;-91
2022/01/02 03:57:17;;;;;;;6.77;6.07;;;;;;;9.01;79.27;97708.88;4962470;28;20230;-92
2022/01/02 04:00:06;;;;;;;9.27;6.73;;;;;;;9.21;79.00;97724.63;4962250;28;20211;-93
2022/01/02 04:02:58;;;;;;;9.93;6.40;;;;;;;8.89;79.63;97704.91;4975648;28;20215;-92
2022/01/02 04:05:45;;;;;;;7.67;6.03;;;;;;;9.25;79.29;97759.00;4961287;28;20208;-92
2022/01/02 04:08:32;;;;;;;8.20;6.10;;;;;;;8.85;79.90;97710.19;4961573;28;20603;-92
2022/01/02 04:11:18;;;;;;;9.67;6.63;;;;;;;8.85;79.48;97725.69;4960322;28;20232;-92
2022/01/02 04:14:04;;;;;;;8.13;6.03;;;;;;;8.59;79.44;97681.69;4961879;28;20313;-91
2022/01/02 04:16:51;;;;;;;9.30;7.00;;;;;;;8.91;79.89;97748.78;4961418;28;20236;-93
2022/01/02 04:19:38;;;;;;;15.77;10.20;;;;;;;9.00;79.33;97751.09;4960245;28;20199;-91
2022/01/02 04:22:25;;;;;;;8.53;6.67;;;;;;;9.09;80.07;97776.66;4961651;28;20214;-91
2022/01/02 04:25:12;;;;;;;8.90;7.13;;;;;;;9.05;79.15;97772.47;4961147;28;20207;-93
2022/01/02 04:27:58;;;;;;;13.40;9.00;;;;;;;8.75;79.91;97752.66;4947792;28;20220;-93
2022/01/02 04:30:44;;;;;;;17.40;10.47;;;;;;;8.50;80.27;97721.50;4977051;28;20579;-91
2022/01/02 04:33:30;;;;;;;17.33;9.80;;;;;;;8.88;80.87;97779.88;4960524;28;20208;-92
2022/01/02 04:36:16;;;;;;;18.53;11.70;;;;;;;8.51;80.37;97714.59;4960515;28;20235;-93
2022/01/02 04:39:02;;;;;;;15.77;8.67;;;;;;;8.90;80.24;97776.31;4961483;28;20368;-92
2022/01/02 04:41:48;;;;;;;11.40;7.70;;;;;;;8.96;80.64;97789.06;4946340;28;20220;-94
2022/01/02 04:44:35;;;;;;;16.70;10.30;;;;;;;8.74;80.32;97762.13;4967976;28;20207;-92
2022/01/02 04:47:21;;;;;;;10.03;7.33;;;;;;;8.75;80.70;97763.00;4969182;28;20267;-94
2022/01/02 04:50:07;;;;;;;15.40;9.63;;;;;;;8.44;81.65;97746.63;4982768;28;20223;-91
2022/01/02 04:52:53;;;;;;;13.57;8.63;;;;;;;8.59;81.90;97756.56;4983356;28;20621;-92
2022/01/02 04:55:39;;;;;;;14.83;9.00;;;;;;;8.88;80.97;97801.34;4957026;29;20248;-93
2022/01/02 04:58:25;;;;;;;18.00;9.83;;;;;;;8.60;81.61;97753.91;4942207;29;20268;-91
2022/01/02 05:01:16;;;;;;;11.47;7.93;;;;;;;8.97;80.17;97790.78;4942431;29;20712;-91
2022/01/02 05:04:06;;;;;;;9.70;6.87;;;;;;;9.15;79.86;97804.91;4942397;29;20333;-92
2022/01/02 05:06:52;;;;;;;11.53;8.50;;;;;;;8.98;79.65;97786.47;4943399;29;20264;-91
2022/01/02 05:09:41;;;;;;;10.37;7.30;;;;;;;9.15;79.58;97799.75;4943483;29;20596;-92
2022/01/02 05:12:27;;;;;;;11.20;8.37;;;;;;;9.25;78.77;97801.22;4939967;29;20244;-91
2022/01/02 05:15:13;;;;;;;16.23;11.07;;;;;;;9.05;79.08;97766.47;4942263;29;20211;-91
2022/01/02 05:18:01;;;;;;;12.40;9.63;;;;;;;9.17;79.71;97803.13;4927419;29;20201;-94
2022/01/02 05:20:47;;;;;;;16.27;9.50;;;;;;;9.01;80.09;97779.47;4939648;29;20212;-92
2022/01/02 05:23:33;;;;;;;12.13;7.90;;;;;;;9.08;80.57;97781.88;4955494;29;20284;-90
2022/01/02 05:26:19;;;;;;;11.47;7.87;;;;;;;9.11;79.32;97755.97;4940585;29;20277;-91
2022/01/02 05:29:05;;;;;;;8.70;5.73;;;;;;;9.55;79.20;97789.09;4926203;29;20676;-91
2022/01/02 05:31:52;;;;;;;7.20;5.63;;;;;;;9.51;78.62;97765.09;4929247;29;20220;-91
2022/01/02 05:34:42;;;;;;;7.10;5.73;;;;;;;9.80;78.22;97801.28;4940341;29;20325;-90
2022/01/02 05:37:29;;;;;;;7.47;5.87;;;;;;;9.73;78.14;97779.06;4940649;29;20208;-90
2022/01/02 05:40:15;;;;;;;11.63;8.10;;;;;;;9.59;77.46;97755.38;4941878;29;20204;-90
2022/01/02 05:43:04;;;;;;;8.97;7.07;;;;;;;10.00;77.76;97817.91;4955195;29;20205;-92
2022/01/02 05:45:50;;;;;;;7.33;5.63;;;;;;;9.93;77.70;97798.31;4941064;29;20212;-90
2022/01/02 05:48:40;;;;;;;7.53;6.20;;;;;;;10.07;77.64;97827.19;4929198;29;20199;-94
2022/01/02 05:51:27;;;;;;;8.60;5.73;;;;;;;9.80;77.35;97775.41;4925653;29;20615;-90
2022/01/02 05:54:17;;;;;;;6.63;5.17;;;;;;;9.99;77.22;97798.09;4950383;28;20320;-92
2022/01/02 05:57:03;;;;;;;6.40;5.17;;;;;;;9.43;77.08;97697.28;4971788;28;20316;-93
2022/01/02 05:59:49;;;;;;;7.43;5.67;;;;;;;10.04;77.05;97788.44;4954420;28;20244;-91
2022/01/02 06:02:36;;;;;;;9.60;6.30;;;;;;;9.94;76.67;97768.94;4963866;28;20906;-91
2022/01/02 06:05:22;;;;;;;11.10;6.50;;;;;;;10.04;76.38;97767.75;4961143;28;20212;-91
2022/01/02 06:08:09;;;;;;;9.87;6.07;;;;;;;10.30;76.32;97823.00;4963413;28;20204;-92
2022/01/02 06:10:54;;;;;;;6.73;5.37;;;;;;;10.36;76.35;97829.72;4946757;28;20243;-94
2022/01/02 06:13:40;;;;;;;9.33;6.87;;;;;;;10.32;76.90;97830.72;4976000;28;20529;-93
2022/01/02 06:16:27;;;;;;;9.10;6.47;;;;;;;10.03;76.73;97789.34;4974318;28;20240;-91
2022/01/02 06:19:12;;;;;;;10.73;7.47;;;;;;;9.99;76.53;97796.38;4972804;28;20248;-93
2022/01/02 06:22:01;;;;;;;11.67;8.70;;;;;;;10.11;76.70;97815.88;4972454;28;20243;-91
2022/01/02 06:24:48;;;;;;;9.50;6.67;;;;;;;10.44;75.90;97851.91;4958455;28;20316;-90
2022/01/02 06:27:34;;;;;;;10.67;7.63;;;;;;;10.43;75.35;97829.47;4943658;28;20228;-91
2022/01/02 06:30:20;;;;;;;12.07;8.20;;;;;;;10.66;75.40;97857.19;4941256;28;20341;-90
2022/01/02 06:33:06;;;;;;;13.20;9.80;;;;;;;10.77;75.23;97855.13;4941952;28;20206;-89
2022/01/02 06:35:52;;;;;;;12.37;9.93;;;;;;;10.75;74.49;97851.72;4956449;28;20725;-89
2022/01/02 06:38:38;;;;;;;17.33;10.20;;;;;;;11.09;74.68;97874.72;4956572;28;20226;-89
2022/01/02 06:41:24;;;;;;;14.57;9.17;;;;;;;10.81;74.53;97841.16;4958363;28;20290;-92
2022/01/02 06:44:09;;;;;;;13.07;9.50;;;;;;;11.00;73.87;97870.75;4959007;28;20200;-92
2022/01/02 06:46:55;;;;;;;11.57;8.10;;;;;;;11.22;73.69;97882.06;4946818;28;20213;-90
2022/01/02 06:49:42;;;;;;;11.20;8.47;;;;;;;11.31;73.98;97894.69;4975278;28;20275;-91
2022/01/02 06:52:28;;;;;;;13.53;10.50;;;;;;;11.15;72.89;97859.81;4962284;28;20288;-92
2022/01/02 06:55:15;;;;;;;14.30;10.47;;;;;;;11.28;73.04;97870.63;4960029;28;20240;-93
2022/01/02 06:58:02;;;;;;;12.90;9.70;;;;;;;11.43;72.81;97873.53;4949814;28;20212;-93
2022/01/02 07:00:48;;;;;;;16.63;9.90;;;;;;;11.56;71.91;97886.06;4959919;28;20201;-91
2022/01/02 07:03:39;;;;;;;15.17;9.97;;;;;;;11.72;71.59;97893.25;4959935;28;20206;-91
2022/01/02 07:06:26;;;;;;;11.10;8.00;;;;;;;11.54;70.64;97874.88;4947999;28;20687;-92
2022/01/02 07:09:11;;;;;;;13.63;9.67;;;;;;;11.80;71.33;97901.59;4973537;28;20199;-91
2022/01/02 07:11:59;;;;;;;11.23;8.57;;;;;;;11.85;70.61;97893.66;4981003;28;20257;-93
2022/01/02 07:14:44;;;;;;;7.90;5.83;;;;;;;11.51;69.66;97834.34;4993615;28;20209;-91
2022/01/02 07:17:30;;;;;;;6.67;5.47;;;;;;;11.77;69.57;97872.31;4976697;28;20225;-91
2022/01/02 07:20:15;;;;;;;9.40;5.90;;;;;;;12.00;69.47;97893.91;4990368;28;20251;-87
2022/01/02 07:23:01;;;;;;;7.27;5.93;;;;;;;11.95;69.89;97882.03;4984817;28;20217;-85
2022/01/02 07:25:47;;;;;;;8.23;4.63;;;;;;;11.96;69.67;97875.91;4966946;28;20332;-85
2022/01/02 07:28:33;;;;;;;7.20;5.67;;;;;;;12.14;69.51;97901.16;4988168;28;20225;-86
2022/01/02 07:31:19;;;;;;;5.17;3.80;;;;;;;12.06;69.03;97890.22;4990759;28;20697;-86
2022/01/02 07:34:05;;;;;;;5.13;4.60;;;;;;;12.09;69.00;97909.16;4977636;29;20241;-86
2022/01/02 07:36:51;;;;;;;3.80;3.23;;;;;;;11.98;69.39;97887.06;4978147;28;20239;-84
2022/01/02 07:39:37;;;;;;;4.60;3.67;;;;;;;11.94;68.99;97872.53;4967913;29;20602;-86
2022/01/02 07:42:22;;;;;;;6.03;4.30;;;;;;;12.06;68.05;97879.84;4959494;28;20382;-85
2022/01/02 07:45:14;;;;;;;4.10;3.70;;;;;;;12.04;67.89;97868.66;4958276;28;20213;-86
2022/01/02 07:48:00;;;;;;;4.07;3.67;;;;;;;12.11;67.91;97870.13;4974028;28;20218;-86
2022/01/02 07:50:47;;;;;;;5.20;3.90;;;;;;;12.21;68.59;97866.28;4974015;28;20221;-87
2022/01/02 07:53:33;;;;;;;4.97;3.63;;;;;;;12.24;67.51;97876.56;4973812;28;20373;-87
2022/01/02 07:56:19;;;;;;;5.63;4.30;;;;;;;12.38;68.11;97887.25;4946176;28;20242;-86
2022/01/02 07:59:04;;;;;;;5.03;3.90;;;;;;;12.23;67.35;97859.28;4974189;28;20248;-87
2022/01/02 08:01:50;;;;;;;8.70;5.30;;;;;;;12.52;66.78;97890.16;4972262;28;20595;-89
2022/01/02 08:04:36;;;;;;;8.07;5.33;;;;;;;12.30;67.41;97845.16;4973213;28;20210;-87
2022/01/02 08:07:22;;;;;;;7.77;4.40;;;;;;;12.54;67.09;97871.88;4971841;28;20242;-87
2022/01/02 08:10:09;;;;;;;8.37;6.20;;;;;;;12.76;66.28;97894.34;4972498;28;20714;-83
2022/01/02 08:12:55;;;;;;;14.50;8.43;;;;;;;12.75;67.15;97897.88;4979582;28;20218;-89
2022/01/02 08:15:41;;;;;;;14.33;9.80;;;;;;;12.62;67.81;97888.88;4981098;28;20309;-86
2022/01/02 08:18:26;;;;;;;18.97;10.60;;;;;;;12.71;67.83;97905.84;4993448;28;20203;-85
2022/01/02 08:21:12;;;;;;;13.17;6.57;;;;;;;12.70;68.02;97894.59;4979183;28;20284;-85
2022/01/02 08:23:57;;;;;;;8.03;5.50;;;;;;;12.78;66.96;97897.72;4991995;28;20212;-85
2022/01/02 08:26:42;;;;;;;10.80;6.23;;;;;;;12.72;66.20;97882.38;4993032;28;20292;-87
2022/01/02 08:29:28;;;;;;;6.07;4.97;;;;;;;12.74;66.61;97893.56;4979061;28;21425;-85
2022/01/02 08:32:13;;;;;;;11.80;6.93;;;;;;;12.78;65.87;97892.53;4991688;28;20256;-86
2022/01/02 08:34:59;;;;;;;8.57;5.30;;;;;;;12.62;66.54;97895.81;4993415;28;20208;-85
2022/01/02 08:37:45;;;;;;;10.77;7.23;;;;;;;12.77;66.71;97903.84;4992742;28;20246;-87
2022/01/02 08:40:31;;;;;;;20.97;13.50;;;;;;;12.76;66.83;97915.13;4992611;28;20258;-86
2022/01/02 08:43:16;;;;;;;5.80;5.00;;;;;;;12.86;65.74;97893.06;5001157;28;20207;-86
2022/01/02 08:46:03;;;;;;;6.13;4.90;;;;;;;12.80;65.79;97862.13;4993623;28;20207;-85
2022/01/02 08:48:49;;;;;;;14.93;4.83;;;;;;;13.01;65.30;97897.63;4992915;28;20585;-84
2022/01/02 08:51:34;;;;;;;10.97;5.67;;;;;;;13.21;64.18;97890.78;4975048;28;20219;-83
2022/01/02 08:54:22;;;;;;;9.63;5.67;;;;;;;13.34;62.74;97891.94;4968171;28;20245;-86
2022/01/02 08:57:10;;;;;;;6.77;5.10;;;;;;;13.43;62.17;97883.75;4974048;28;20259;-86
2022/01/02 08:59:55;;;;;;;4.60;3.37;;;;;;;13.26;61.54;97849.81;4973539;28;20203;-87
2022/01/02 09:02:41;;;;;;;3.80;3.40;;;;;;;13.42;61.21;97851.66;4971473;28;20743;-85
2022/01/02 09:05:27;;;;;;;3.60;2.70;;;;;;;13.57;60.04;97891.78;4973245;28;20213;-84
2022/01/02 09:08:13;;;;;;;5.47;3.00;;;;;;;13.55;60.61;97902.28;4973234;28;20251;-86
2022/01/02 09:10:58;;;;;;;3.13;2.67;;;;;;;13.52;60.49;97897.19;4971745;28;20263;-85
2022/01/02 09:13:44;;;;;;;4.07;2.90;;;;;;;13.44;60.52;97877.59;4973265;28;20213;-87
2022/01/02 09:16:30;;;;;;;4.80;3.90;;;;;;;13.58;60.53;97896.09;4972278;28;20327;-86
2022/01/02 09:19:15;;;;;;;3.17;2.40;;;;;;;13.70;59.13;97883.34;4971379;28;20294;-87
2022/01/02 09:22:02;;;;;;;5.10;3.37;;;;;;;13.80;59.10;97891.63;4972780;28;20258;-85
2022/01/02 09:24:47;;;;;;;5.47;3.87;;;;;;;13.87;58.80;97883.44;4971333;28;20615;-85
2022/01/02 09:27:33;;;;;;;6.67;4.27;;;;;;;14.00;58.66;97891.56;4971948;28;20759;-85
2022/01/02 09:30:18;;;;;;;4.97;3.47;;;;;;;13.94;59.36;97888.38;4973540;28;20254;-85
2022/01/02 09:33:08;;;;;;;4.13;3.10;;;;;;;13.76;59.23;97871.84;4971339;28;20218;-85
2022/01/02 09:35:54;;;;;;;3.13;2.80;;;;;;;13.77;59.95;97868.31;4972010;28;20207;-87
2022/01/02 09:38:39;;;;;;;5.03;3.10;;;;;;;13.76;59.75;97859.69;4972712;28;20222;-85
2022/01/02 09:41:25;;;;;;;3.83;2.20;;;;;;;13.93;59.40;97884.91;4970815;28;20706;-82
2022/01/02 09:44:11;;;;;;;9.43;4.33;;;;;;;13.97;59.65;97883.91;4972435;28;20669;-85
2022/01/02 09:46:57;;;;;;;5.43;3.80;;;;;;;13.99;59.74;97879.47;4973303;28;20211;-87
2022/01/02 09:49:46;;;;;;;5.70;3.53;;;;;;;14.18;59.56;97875.06;4970322;28;20200;-85
2022/01/02 09:52:37;;;;;;;6.77;3.37;;;;;;;14.30;58.99;97871.09;4972546;28;20211;-87
2022/01/02 09:55:05;;;;;;;4.53;3.83;;;;;;;14.36;59.23;97855.97;4972895;28;20239;-84
2022/01/02 09:57:32;;;;;;;7.20;4.90;;;;;;;14.42;59.65;97862.69;4954031;28;20239;-85
2022/01/02 10:00:00;;;;;;;8.67;4.13;;;;;;;14.27;60.26;97830.34;4972056;28;20204;-85
2022/01/02 10:02:55;;;;;;;7.10;3.80;;;;;;;14.51;59.84;97875.25;4970922;28;20275;-84
2022/01/02 10:06:15;;;;;;;6.07;3.63;;;;;;;14.63;59.83;97867.69;4970701;28;20295;-84
2022/01/02 10:09:35;;;;;;;7.00;3.97;;;;;;;14.68;59.52;97863.13;4969968;28;20203;-84
2022/01/02 10:13:10;;;;;;;5.53;4.13;;;;;;;14.72;58.56;97865.56;4968601;28;20355;-83
2022/01/02 10:16:19;;;;;;;4.93;3.13;;;;;;;14.38;57.94;97864.59;4953889;28;20200;-84
2022/01/02 10:19:48;;;;;;;2.60;2.30;;;;;;;14.23;58.46;97856.63;4969206;28;20270;-78
2022/01/02 10:23:01;;;;;;;3.53;2.70;;;;;;;14.27;58.38;97858.16;4969966;28;20188;-83
2022/01/02 10:26:21;;;;;;;5.20;3.30;;;;;;;14.37;57.57;97865.50;4970300;28;20243;-83
2022/01/02 10:29:46;;;;;;;4.70;3.63;;;;;;;14.35;58.49;97848.25;4968634;28;20196;-84
2022/01/02 10:33:17;;;;;;;2.40;2.13;;;;;;;14.32;58.38;97840.59;4970126;28;20219;-86
2022/01/02 10:36:01;;;;;;;2.50;2.30;;;;;;;14.19;57.97;97827.28;4970042;28;20220;-86
2022/01/02 10:39:24;;;;;;;2.60;2.40;;;;;;;14.26;58.31;97833.88;4969195;28;20240;-86
2022/01/02 10:42:45;;;;;;;3.03;2.67;;;;;;;14.44;57.64;97830.44;4969469;28;20269;-85
2022/01/02 10:46:21;;;;;;;4.07;2.40;;;;;;;14.47;57.31;97827.66;4969024;28;20224;-84
2022/01/02 10:49:41;;;;;;;2.77;2.43;;;;;;;14.53;57.46;97816.09;4970398;28;20200;-85
2022/01/02 10:52:47;;;;;;;6.97;4.10;;;;;;;14.54;57.41;97808.22;4971632;28;20192;-84
2022/01/02 10:56:08;;;;;;;4.60;2.43;;;;;;;14.50;56.30;97806.69;4969113;28;20584;-84
2022/01/02 10:59:29;;;;;;;6.03;3.37;;;;;;;14.56;56.83;97789.88;4968644;28;20283;-84
2022/01/02 11:02:52;;;;;;;3.20;2.30;;;;;;;14.74;56.17;97785.50;4972554;28;20188;-85
2022/01/02 11:06:13;;;;;;;4.73;3.40;;;;;;;14.77;55.98;97777.53;4973856;28;20188;-85
2022/01/02 11:09:37;;;;;;;5.33;4.00;;;;;;;15.13;54.94;97793.91;4974085;28;20196;-82
2022/01/02 11:12:58;;;;;;;5.30;4.27;;;;;;;15.28;54.31;97800.94;4971720;28;20289;-82
2022/01/02 11:16:19;;;;;;;6.37;3.43;;;;;;;15.45;53.84;97803.53;4971907;28;20196;-84
2022/01/02 11:19:40;;;;;;;5.33;3.50;;;;;;;15.61;52.48;97793.13;4973235;28;20200;-85
2022/01/02 11:22:52;;;;;;;3.30;2.40;;;;;;;15.49;52.99;97794.63;4972805;28;20203;-84
2022/01/02 11:26:02;;;;;;;5.40;2.57;;;;;;;15.37;53.42;97790.03;4972789;28;20196;-82
2022/01/02 11:29:29;;;;;;;3.97;2.57;;;;;;;15.53;53.02;97792.69;4971949;28;20207;-84
2022/01/02 11:32:26;;;;;;;6.70;3.73;;;;;;;15.43;52.25;97747.97;4959222;28;20271;-84
2022/01/02 11:34:56;;;;;;;5.20;3.20;;;;;;;15.62;51.70;97793.03;4950685;28;20217;-84
2022/01/02 11:38:11;;;;;;;5.27;3.63;;;;;;;15.82;51.79;97795.44;4989700;28;20223;-84
2022/01/02 11:40:58;;;;;;;6.40;2.57;;;;;;;15.88;51.42;97799.47;4983391;28;20261;-81
2022/01/02 11:43:46;;;;;;;5.37;2.63;;;;;;;15.92;51.09;97798.38;4976718;28;20196;-85
2022/01/02 11:46:26;;;;;;;5.43;3.53;;;;;;;16.03;50.12;97801.25;4973717;28;20203;-86
2022/01/02 11:49:59;;;;;;;7.47;2.80;;;;;;;16.00;50.27;97797.03;4974609;28;20273;-84
2022/01/02 11:53:11;;;;;;;3.03;2.03;;;;;;;15.81;50.43;97796.34;4956725;28;20212;-87
2022/01/02 11:55:54;;;;;;;4.73;2.17;;;;;;;15.82;50.35;97800.66;4972492;28;20263;-86
2022/01/02 11:58:46;;;;;;;3.80;3.00;;;;;;;15.77;50.87;97799.19;4974033;28;20220;-87
2022/01/02 12:01:49;;;;;;;6.33;3.90;;;;;;;15.79;50.66;97792.97;4957889;28;20735;-85
2022/01/02 12:04:17;;;;;;;2.50;2.00;;;;;;;15.83;50.13;97788.41;4972901;28;20193;-87
2022/01/02 12:06:52;;;;;;;3.40;2.10;;;;;;;15.68;50.39;97784.88;4974360;28;20203;-86
2022/01/02 12:10:11;;;;;;;2.90;2.00;;;;;;;15.80;49.92;97793.81;4956028;28;20671;-86
2022/01/02 12:12:59;;;;;;;2.00;1.80;;;;;;;15.66;49.95;97786.72;4960814;28;20196;-87
2022/01/02 12:15:41;;;;;;;5.80;3.63;;;;;;;15.75;50.54;97786.22;4973378;28;20211;-90
2022/01/02 12:18:27;;;;;;;4.27;2.93;;;;;;;15.82;50.36;97784.97;4954023;28;20252;-87
2022/01/02 12:21:02;;;;;;;3.27;2.10;;;;;;;15.87;50.19;97779.47;4963323;28;20776;-85
2022/01/02 12:23:35;;;;;;;12.10;4.90;;;;;;;15.73;50.68;97782.84;4981399;28;20206;-85
2022/01/02 12:26:24;;;;;;;3.57;2.57;;;;;;;14.84;50.24;97622.47;4945071;28;20201;-85
2022/01/02 12:29:12;;;;;;;2.10;1.90;;;;;;;15.42;50.01;97726.22;4974304;28;20254;-84
2022/01/02 12:31:55;;;;;;;;;;;;;;;;;;;;;
2022/01/02 12:34:40;;;;;;;2.70;2.27;;;;;;;15.30;50.41;97710.34;4976297;28;20291;-88
2022/01/02 12:37:13;;;;;;;2.23;2.03;;;;;;;15.58;50.05;97739.28;4943734;28;20224;-89
2022/01/02 12:39:43;;;;;;;2.30;2.03;;;;;;;14.94;50.37;97628.88;4958068;28;20193;-87
2022/01/02 12:42:14;;;;;;;3.87;2.40;;;;;;;15.72;50.94;97769.88;4925777;28;20269;-84
2022/01/02 12:44:45;;;;;;;2.90;2.40;;;;;;;15.61;51.35;97760.03;4944838;28;20211;-89
2022/01/02 12:47:26;;;;;;;6.63;3.30;;;;;;;15.61;52.08;97788.75;4930707;28;20228;-83
2022/01/02 12:49:56;;;;;;;4.83;3.60;;;;;;;15.15;52.76;97722.44;4980199;28;20706;-86
2022/01/02 12:52:29;;;;;;;7.00;2.90;;;;;;;14.98;53.67;97693.78;4964990;28;20227;-89
2022/01/02 12:55:00;;;;;;;3.53;2.80;;;;;;;15.30;53.69;97758.19;4953543;28;20275;-88
2022/01/02 12:57:29;;;;;;;4.97;2.67;;;;;;;15.07;53.91;97734.22;4971376;28;20299;-88
2022/01/02 12:59:56;;;;;;;6.33;3.57;;;;;;;15.30;54.18;97775.59;4941181;28;20207;-89
2022/01/02 13:02:25;;;;;;;3.83;3.10;;;;;;;15.23;55.15;97774.22;4972129;28;20204;-87
2022/01/02 13:04:55;;;;;;;4.70;3.60;;;;;;;15.12;55.44;97747.88;4956420;28;20268;-86
2022/01/02 13:07:35;;;;;;;10.83;3.80;;;;;;;15.35;54.21;97777.03;4973776;28;20201;-89
2022/01/02 13:10:09;;;;;;;8.00;4.20;;;;;;;14.89;54.57;97703.88;4956770;28;20197;-87
2022/01/02 13:12:38;;;;;;;6.23;3.60;;;;;;;15.05;54.27;97728.22;4972944;28;20199;-87
2022/01/02 13:15:05;;;;;;;5.77;3.43;;;;;;;15.39;54.11;97773.34;4956057;28;20211;-91
2022/01/02 13:17:38;;;;;;;5.00;2.70;;;;;;;14.55;53.21;97624.81;4974161;28;20232;-87
2022/01/02 13:20:14;;;;;;;4.37;2.80;;;;;;;15.50;52.60;97764.97;4958639;28;20292;-87